Time;durP1;ratioP1;P1;durP2;ratioP2;P2;SDS_P1;SDS_P2;PMS_P1;PMS_P2;Temp;Humidity;BMP_temperature;BMP_pressure;BME280_temperature;BME280_humidity;BME280_pressure;Samples;Min_cycle;Max_cycle;Signal;HPM_P1;HPM_P2
2022/10/06 05:52:03;;;;;;;;;;;;;;;17.61;77.44;98091.66;4262149;27;10345;-67
2022/10/06 05:54:06;;;;;;;;;;;;;;;17.91;76.58;98094.78;4257795;27;7651;-78
2022/10/06 05:56:12;;;;;;;;;;;;;;;18.14;76.22;98088.97;4254673;27;5759;-68
2022/10/06 05:58:15;;;;;;;;;;;;;;;18.31;75.77;98090.13;4249659;27;5661;-68
2022/10/06 06:00:20;;;;;;;;;;;;;;;18.46;75.16;98094.41;4255393;27;5624;-68
2022/10/06 06:02:23;;;;;;;;;;;;;;;18.57;75.02;98094.59;4264500;27;5628;-68
2022/10/06 06:04:26;;;;;;;;;;;;;;;18.65;74.69;98096.22;4265318;27;5620;-68
2022/10/06 06:06:30;;;;;;;;;;;;;;;18.73;74.39;98092.50;4265368;27;6044;-68
2022/10/06 06:08:35;;;;;;;;;;;;;;;18.78;74.32;98080.09;4265462;27;5639;-68
2022/10/06 06:10:38;;;;;;;;;;;;;;;18.83;73.71;98084.81;4264892;27;5683;-68
2022/10/06 06:12:41;;;;;;;;;;;;;;;18.88;73.61;98090.34;4264895;27;5731;-68
2022/10/06 06:17:04;;;;;;;;;;;;;;;18.94;73.28;98084.13;4265021;27;5643;-69
2022/10/06 06:19:08;;;;;;;;;;;;;;;18.97;73.11;98088.25;4265060;27;5749;-68
2022/10/06 06:21:11;;;;;;;;;;;;;;;18.99;73.21;98097.69;4264983;27;7345;-68
2022/10/06 06:23:14;;;;;;;;;;;;;;;19.01;72.79;98092.94;4265100;27;5730;-68
2022/10/06 06:25:19;;;;;;;;;;;;;;;19.04;73.01;98094.41;4265045;27;6396;-68
2022/10/06 06:27:22;;;;;;;;;;;;;;;19.05;72.82;98094.19;4264851;27;5086;-68
2022/10/06 06:29:25;;;;;;;;;;;;;;;19.07;72.58;98089.41;4265140;27;5632;-68
2022/10/06 06:31:30;;;;;;;;;;;;;;;19.10;72.52;98104.25;4265255;27;5746;-68
2022/10/06 06:33:33;;;;;;;;;;;;;;;19.11;72.52;98101.34;4264981;27;5643;-68
2022/10/06 06:35:36;;;;;;;;;;;;;;;19.12;72.23;98102.97;4265256;27;5616;-68
2022/10/06 06:37:40;;;;;;;;;;;;;;;19.14;71.92;98095.56;4264934;27;5648;-68
2022/10/06 06:39:42;;;;;;;;;;;;;;;19.15;71.88;98102.56;4264872;27;6134;-68
2022/10/06 06:41:47;;;;;;;;;;;;;;;19.16;71.60;98112.25;4264577;27;6337;-69
2022/10/06 06:43:51;;;;;;;;;;;;;;;19.17;71.48;98110.38;4264621;27;5657;-68
2022/10/06 06:46:02;;;;;;;;;;;;;;;19.16;71.50;98109.56;4264793;27;6332;-68
2022/10/06 06:48:06;;;;;;;;;;;;;;;19.18;71.55;98110.16;4264896;27;5623;-68
2022/10/06 06:50:09;;;;;;;;;;;;;;;19.19;71.31;98109.13;4264371;27;5726;-68
2022/10/06 06:52:15;;;;;;;;;;;;;;;19.18;71.06;98117.41;4257989;27;5628;-68
2022/10/06 06:54:18;;;;;;;;;;;;;;;19.19;70.80;98127.91;4253097;27;5727;-68
2022/10/06 06:56:21;;;;;;;;;;;;;;;19.22;70.64;98128.50;4252923;27;5739;-69
2022/10/06 06:58:26;;;;;;;;;;;;;;;19.23;70.65;98120.22;4253271;27;7201;-68
2022/10/06 07:00:30;;;;;;;;;;;;;;;19.25;70.28;98112.78;4253492;27;5768;-68
2022/10/06 07:02:38;;;;;;;;;;;;;;;19.27;70.43;98126.00;4253317;27;5687;-68
2022/10/06 07:04:42;;;;;;;;;;;;;;;19.30;70.25;98126.38;4253369;27;5628;-68
2022/10/06 07:06:52;;;;;;;;;;;;;;;19.35;70.17;98125.72;4252907;27;5616;-68
2022/10/06 07:09:02;;;;;;;;;;;;;;;19.39;70.10;98129.63;4253147;27;5078;-68
2022/10/06 07:11:13;;;;;;;;;;;;;;;19.44;70.10;98127.13;4252640;27;5627;-68
2022/10/06 07:13:16;;;;;;;;;;;;;;;19.49;69.63;98129.97;4253018;27;5621;-68
2022/10/06 07:27:06;;;;;;;;;;;;;;;19.61;69.33;98136.31;4252558;27;5652;-69
2022/10/06 07:29:10;;;;;;;;;;;;;;;19.64;68.93;98132.38;4253171;27;5640;-69
2022/10/06 07:31:15;;;;;;;;;;;;;;;19.66;69.04;98119.56;4251467;27;6832;-69
2022/10/06 07:33:18;;;;;;;;;;;;;;;19.67;68.81;98122.00;4253092;27;5624;-69
2022/10/06 07:35:23;;;;;;;;;;;;;;;19.67;69.19;98126.56;4252995;27;6440;-68
2022/10/06 07:37:27;;;;;;;;;;;;;;;19.68;69.06;98126.34;4252566;27;5776;-68
2022/10/06 07:39:31;;;;;;;;;;;;;;;19.68;68.71;98129.03;4252712;27;6340;-69
2022/10/06 07:41:34;;;;;;;;;;;;;;;19.68;68.61;98133.56;4250520;27;5894;-68
2022/10/06 07:43:37;;;;;;;;;;;;;;;19.69;68.79;98136.03;4252763;27;5616;-68
2022/10/06 07:45:40;;;;;;;;;;;;;;;19.70;68.76;98132.31;4252499;27;5740;-68
2022/10/06 07:47:46;;;;;;;;;;;;;;;19.71;68.80;98130.47;4252140;27;5628;-69
2022/10/06 07:49:49;;;;;;;;;;;;;;;19.70;68.75;98131.47;4252656;27;5763;-69
2022/10/06 07:51:53;;;;;;;;;;;;;;;19.70;68.86;98126.13;4252224;27;5612;-69
2022/10/06 07:53:59;;;;;;;;;;;;;;;19.72;68.39;98132.94;4252612;27;6433;-69
2022/10/06 07:56:04;;;;;;;;;;;;;;;19.73;68.31;98136.44;4252239;27;5635;-69
2022/10/06 07:58:10;;;;;;;;;;;;;;;19.74;68.74;98138.88;4251944;27;5616;-69
2022/10/06 08:00:15;;;;;;;;;;;;;;;19.76;68.64;98136.81;4252311;27;5612;-69
2022/10/06 08:02:18;;;;;;;;;;;;;;;19.78;68.17;98136.59;4252125;27;5640;-69
2022/10/06 08:04:22;;;;;;;;;;;;;;;19.78;67.99;98134.72;4251213;27;6306;-68
2022/10/06 08:06:25;;;;;;;;;;;;;;;19.81;68.02;98143.38;4252339;27;5760;-68
2022/10/06 08:08:30;;;;;;;;;;;;;;;19.81;68.05;98143.38;4252073;27;6517;-68
2022/10/06 08:10:33;;;;;;;;;;;;;;;19.84;68.27;98141.09;4251758;27;6082;-68
2022/10/06 08:12:38;;;;;;;;;;;;;;;19.83;67.93;98147.50;4251800;27;5623;-69
2022/10/06 08:14:41;;;;;;;;;;;;;;;19.84;67.80;98141.09;4252161;27;5624;-68
2022/10/06 08:16:44;;;;;;;;;;;;;;;19.81;67.87;98140.69;4252139;27;5706;-68
2022/10/06 08:18:52;;;;;;;;;;;;;;;19.82;67.87;98142.31;4251926;27;5632;-68
2022/10/06 08:20:57;;;;;;;;;;;;;;;19.83;68.15;98149.34;4251899;27;5640;-68
2022/10/06 08:23:00;;;;;;;;;;;;;;;19.84;67.94;98145.63;4234747;28;5833;-68
2022/10/06 08:25:03;;;;;;;;;;;;;;;19.84;67.79;98148.31;4251748;27;5616;-68
2022/10/06 08:27:09;;;;;;;;;;;;;;;19.83;67.89;98144.81;4251663;27;5725;-68
2022/10/06 08:29:12;;;;;;;;;;;;;;;19.82;67.80;98147.69;4251697;27;5631;-68
2022/10/06 08:31:16;;;;;;;;;;;;;;;19.81;67.67;98149.56;4251738;27;5881;-68
2022/10/06 08:33:19;;;;;;;;;;;;;;;19.80;67.67;98139.03;4251619;27;7662;-68
2022/10/06 08:35:23;;;;;;;;;;;;;;;19.82;67.37;98139.63;4251725;27;5655;-69
2022/10/06 08:37:27;;;;;;;;;;;;;;;19.85;67.10;98139.22;4251547;27;5646;-69
2022/10/06 08:39:30;;;;;;;;;;;;;;;19.86;67.16;98154.28;4251580;27;5620;-68
2022/10/06 08:41:39;;;;;;;;;;;;;;;19.87;67.09;98147.88;4250783;27;5746;-68
2022/10/06 08:43:43;;;;;;;;;;;;;;;19.89;67.07;98148.47;4251612;27;5639;-68
2022/10/06 08:46:00;;;;;;;;;;;;;;;19.90;66.88;98152.78;4251752;27;5699;-69
2022/10/06 08:48:06;;;;;;;;;;;;;;;19.92;67.04;98145.34;4251579;27;5727;-70
2022/10/06 08:50:12;;;;;;;;;;;;;;;19.94;66.96;98148.66;4251384;27;5730;-69
2022/10/06 08:52:28;;;;;;;;;;;;;;;19.96;66.92;98151.94;4251208;27;5612;-69
2022/10/06 08:54:41;;;;;;;;;;;;;;;19.97;66.97;98149.03;4251630;27;5648;-68
2022/10/06 08:56:54;;;;;;;;;;;;;;;19.97;66.56;98140.97;4251311;27;5789;-69
2022/10/06 08:59:03;;;;;;;;;;;;;;;20.00;66.50;98137.00;4251473;27;5632;-69
2022/10/06 09:01:17;;;;;;;;;;;;;;;20.01;66.59;98139.47;4251247;27;5719;-69
2022/10/06 09:03:26;;;;;;;;;;;;;;;20.02;66.50;98141.13;4251287;27;5635;-68
2022/10/06 09:05:30;;;;;;;;;;;;;;;20.02;66.59;98142.97;4251214;27;5621;-68
2022/10/06 09:07:42;;;;;;;;;;;;;;;20.04;66.61;98141.72;4250840;27;5620;-68
2022/10/06 09:10:10;;;;;;;;;;;;;;;20.07;66.47;98143.16;4251025;27;5619;-68
2022/10/06 09:12:19;;;;;;;;;;;;;;;20.04;66.09;98139.03;4250682;27;5632;-68
2022/10/06 09:14:28;;;;;;;;;;;;;;;20.04;65.83;98132.84;4250774;27;5633;-69
2022/10/06 09:16:36;;;;;;;;;;;;;;;20.04;65.75;98140.88;4251166;27;5663;-69
2022/10/06 09:18:47;;;;;;;;;;;;;;;20.04;65.79;98139.03;4250784;27;5086;-70
2022/10/06 09:21:14;;;;;;;;;;;;;;;20.06;65.60;98130.78;4251288;27;5860;-69
2022/10/06 09:23:46;;;;;;;;;;;;;;;20.08;65.42;98138.59;4251018;27;7636;-69
2022/10/06 09:25:43;;;;;;;;;;;;;;;20.09;65.32;98142.94;4251251;27;5679;-69
2022/10/06 09:27:49;;;;;;;;;;;;;;;20.10;65.19;98131.97;4250669;27;5710;-69
2022/10/06 09:29:53;;;;;;;;;;;;;;;20.10;65.02;98131.97;4249855;27;5673;-69
2022/10/06 09:31:56;;;;;;;;;;;;;;;20.13;64.75;98133.38;4250951;27;5617;-69
2022/10/06 09:34:04;;;;;;;;;;;;;;;20.14;64.99;98133.16;4250769;27;5612;-68
2022/10/06 09:36:09;;;;;;;;;;;;;;;20.16;64.81;98133.78;4234006;28;5660;-67
2022/10/06 09:38:11;;;;;;;;;;;;;;;20.17;64.37;98127.38;4233845;28;5780;-69
2022/10/06 09:40:34;;;;;;;;;;;;;;;20.19;64.54;98127.13;4243961;27;5624;-68
2022/10/06 09:42:44;;;;;;;;;;;;;;;20.23;64.35;98125.63;4250544;27;5643;-68
2022/10/06 09:44:57;;;;;;;;;;;;;;;20.24;64.33;98122.72;4250817;27;5635;-68
2022/10/06 09:46:59;;;;;;;;;;;;;;;20.26;64.32;98126.00;4250897;27;5968;-68
2022/10/06 09:49:14;;;;;;;;;;;;;;;20.28;64.24;98123.94;4250844;27;5624;-68
2022/10/06 09:51:18;;;;;;;;;;;;;;;20.29;64.07;98125.59;4250357;27;5645;-68
2022/10/06 09:53:21;;;;;;;;;;;;;;;20.32;64.20;98119.75;4250410;27;5616;-69
2022/10/06 09:55:27;;;;;;;;;;;;;;;20.34;64.17;98114.97;4250638;27;5616;-69
2022/10/06 09:57:31;;;;;;;;;;;;;;;20.38;63.75;98117.22;4250503;27;5702;-69
2022/10/06 09:59:40;;;;;;;;;;;;;;;20.39;63.85;98118.88;4250990;27;5641;-69
2022/10/06 10:01:51;;;;;;;;;;;;;;;20.40;63.45;98115.16;4250516;27;5684;-68
2022/10/06 10:03:59;;;;;;;;;;;;;;;20.42;63.51;98111.22;4250840;27;5715;-69
2022/10/06 10:06:26;;;;;;;;;;;;;;;20.43;63.62;98109.34;4250547;27;5636;-69
2022/10/06 10:08:29;;;;;;;;;;;;;;;20.43;63.22;98104.81;4250541;27;5640;-69
2022/10/06 10:10:35;;;;;;;;;;;;;;;20.45;63.52;98104.56;4250318;27;5612;-69
2022/10/06 10:12:49;;;;;;;;;;;;;;;20.48;63.20;98101.44;4250336;27;5861;-69
2022/10/06 10:14:55;;;;;;;;;;;;;;;20.49;63.50;98097.69;4250788;27;5071;-69
2022/10/06 10:16:58;;;;;;;;;;;;;;;20.52;63.00;98106.16;4250626;27;6325;-69
2022/10/06 10:19:01;;;;;;;;;;;;;;;20.54;62.87;98101.38;4241893;27;5624;-70
2022/10/06 10:21:07;;;;;;;;;;;;;;;20.57;63.08;98105.47;4250533;27;5628;-69
2022/10/06 10:23:23;;;;;;;;;;;;;;;20.57;63.00;98100.91;4250891;27;5647;-70
2022/10/06 10:25:44;;;;;;;;;;;;;;;20.59;62.65;98093.44;4250599;27;5632;-69
2022/10/06 10:27:55;;;;;;;;;;;;;;;20.60;62.91;98099.63;4252315;27;5640;-69
2022/10/06 10:30:08;;;;;;;;;;;;;;;20.61;62.81;98096.75;4253786;27;5627;-69
2022/10/06 10:32:16;;;;;;;;;;;;;;;20.63;62.81;98096.50;4253555;27;5636;-69
2022/10/06 10:34:47;;;;;;;;;;;;;;;20.64;62.60;98100.84;4253754;27;5718;-68
2022/10/06 10:36:54;;;;;;;;;;;;;;;20.66;62.73;98089.84;4253665;27;5628;-69
2022/10/06 10:38:58;;;;;;;;;;;;;;;20.67;62.51;98084.25;4253473;27;5620;-69
2022/10/06 10:41:08;;;;;;;;;;;;;;;20.68;62.56;98090.44;4253423;27;5631;-69
2022/10/06 10:43:21;;;;;;;;;;;;;;;20.68;62.73;98091.25;4253351;27;5644;-69
2022/10/06 10:45:31;;;;;;;;;;;;;;;20.69;62.66;98084.84;4253543;27;5764;-70
2022/10/06 10:47:37;;;;;;;;;;;;;;;20.71;62.28;98090.81;4253454;27;6388;-69
2022/10/06 10:49:47;;;;;;;;;;;;;;;20.71;62.38;98085.44;4253405;27;5635;-69
2022/10/06 10:51:54;;;;;;;;;;;;;;;20.72;62.46;98089.75;4252888;27;5632;-69
2022/10/06 10:54:03;;;;;;;;;;;;;;;20.73;62.26;98087.91;4253522;27;5624;-69
2022/10/06 10:56:08;;;;;;;;;;;;;;;20.75;62.22;98083.94;4253525;27;5648;-69
2022/10/06 10:58:18;;;;;;;;;;;;;;;20.76;62.16;98077.53;4253016;27;5632;-69
2022/10/06 11:00:24;;;;;;;;;;;;;;;20.76;61.92;98085.59;4253247;27;5741;-70
2022/10/06 11:02:28;;;;;;;;;;;;;;;20.77;62.23;98075.66;4252799;27;6747;-68
2022/10/06 11:04:31;;;;;;;;;;;;;;;20.78;61.88;98079.97;4253193;27;5722;-68
2022/10/06 11:06:54;;;;;;;;;;;;;;;20.79;62.23;98082.44;4253223;27;6455;-68
2022/10/06 11:09:02;;;;;;;;;;;;;;;20.81;62.21;98085.72;4253265;27;5624;-69
2022/10/06 11:11:13;;;;;;;;;;;;;;;20.84;61.82;98079.09;4244937;27;5627;-68
2022/10/06 11:13:20;;;;;;;;;;;;;;;20.84;61.74;98079.91;4252754;27;5616;-68
2022/10/06 11:15:40;;;;;;;;;;;;;;;20.85;61.98;98081.53;4253332;27;5632;-69
2022/10/06 11:17:49;;;;;;;;;;;;;;;20.86;61.93;98071.63;4252815;27;5758;-69
2022/10/06 11:19:57;;;;;;;;;;;;;;;20.87;61.72;98079.44;4253185;27;5660;-69
2022/10/06 11:22:05;;;;;;;;;;;;;;;20.88;61.80;98070.34;4251691;27;5609;-69
2022/10/06 11:24:15;;;;;;;;;;;;;;;20.90;61.94;98073.59;4252893;27;6320;-69
2022/10/06 11:26:36;;;;;;;;;;;;;;;20.91;61.84;98071.75;4252875;27;5066;-69
2022/10/06 11:28:44;;;;;;;;;;;;;;;20.91;61.54;98072.56;4252920;27;5633;-69
2022/10/06 11:30:59;;;;;;;;;;;;;;;20.93;61.58;98069.63;4253022;27;5730;-69
2022/10/06 11:33:13;;;;;;;;;;;;;;;20.93;61.38;98073.16;4252897;27;6501;-69
2022/10/06 11:35:20;;;;;;;;;;;;;;;20.95;61.63;98064.84;4252774;27;6886;-69
2022/10/06 11:37:35;;;;;;;;;;;;;;;20.97;61.63;98056.59;4252822;27;5635;-69
2022/10/06 11:39:48;;;;;;;;;;;;;;;20.97;61.54;98060.09;4252908;27;5799;-69
2022/10/06 11:41:58;;;;;;;;;;;;;;;20.99;61.57;98057.97;4252325;27;5656;-69
2022/10/06 11:44:07;;;;;;;;;;;;;;;21.01;61.36;98060.44;4252625;27;5635;-68
2022/10/06 11:46:24;;;;;;;;;;;;;;;21.01;61.53;98065.81;4252567;27;5644;-69
2022/10/06 11:48:35;;;;;;;;;;;;;;;21.01;61.42;98047.81;4252511;27;5727;-69
2022/10/06 11:50:40;;;;;;;;;;;;;;;21.03;61.17;98044.91;4252089;27;5639;-69
2022/10/06 11:52:46;;;;;;;;;;;;;;;21.05;61.19;98048.16;4252459;27;5639;-69
2022/10/06 11:54:51;;;;;;;;;;;;;;;21.06;61.35;98041.75;4252465;27;5727;-68
2022/10/06 11:56:54;;;;;;;;;;;;;;;21.06;61.40;98039.06;4251942;27;6373;-69
2022/10/06 11:59:24;;;;;;;;;;;;;;;21.07;61.08;98032.66;4252297;27;5617;-69
2022/10/06 12:02:00;;;;;;;;;;;;;;;21.08;61.44;98037.78;4252291;27;5827;-69
2022/10/06 12:04:15;;;;;;;;;;;;;;;21.09;60.88;98038.63;4199488;28;5818;-69
2022/10/06 12:06:53;;;;;;;;;;;;;;;21.10;60.94;98034.88;4199717;28;5736;-69
2022/10/06 12:08:55;;;;;;;;;;;;;;;21.12;61.32;98027.38;4199263;28;7236;-69
2022/10/06 12:10:59;;;;;;;;;;;;;;;21.13;61.22;98027.16;4199018;28;5844;-70
2022/10/06 12:13:15;;;;;;;;;;;;;;;21.14;61.30;98019.91;4198883;28;5772;-68
2022/10/06 12:15:48;;;;;;;;;;;;;;;21.16;61.17;98017.81;4199365;28;5987;-68
2022/10/06 12:18:34;;;;;;;;;;;;;;;21.16;60.92;98017.81;4198920;28;5685;-69
2022/10/06 12:20:52;;;;;;;;;;;;;;;21.18;60.87;98019.22;4196608;28;5650;-69
2022/10/06 12:23:03;;;;;;;;;;;;;;;21.19;60.65;98014.66;4199070;28;5816;-70
2022/10/06 12:25:16;;;;;;;;;;;;;;;21.21;60.82;98015.25;4191645;28;5816;-69
2022/10/06 12:27:48;;;;;;;;;;;;;;;21.23;60.84;98007.78;4198982;28;6594;-69
2022/10/06 12:29:57;;;;;;;;;;;;;;;21.25;60.57;98004.84;4199169;28;5677;-69
2022/10/06 12:32:14;;;;;;;;;;;;;;;21.26;60.49;98001.94;4199018;28;5657;-69
2022/10/06 12:34:54;;;;;;;;;;;;;;;21.29;60.49;98000.66;4199105;27;5653;-69
2022/10/06 12:37:31;;;;;;;;;;;;;;;21.29;60.33;98000.66;4251764;27;5620;-68
2022/10/06 12:39:35;;;;;;;;;;;;;;;21.28;60.37;97990.97;4251753;27;5744;-70
2022/10/06 12:41:56;;;;;;;;;;;;;;;21.30;60.33;98002.31;4250835;27;5615;-70
2022/10/06 12:44:02;;;;;;;;;;;;;;;21.30;60.16;97997.75;4251649;27;6498;-69
2022/10/06 12:46:15;;;;;;;;;;;;;;;21.33;60.21;97991.09;4251342;27;5793;-69
2022/10/06 12:48:23;;;;;;;;;;;;;;;21.35;60.40;97989.00;4251433;27;5636;-69
2022/10/06 12:50:27;;;;;;;;;;;;;;;21.34;60.20;97977.41;4250684;27;5612;-69
2022/10/06 12:52:46;;;;;;;;;;;;;;;21.34;60.52;97974.72;4250982;27;5747;-69
2022/10/06 12:55:03;;;;;;;;;;;;;;;21.37;60.18;97974.25;4251227;27;5723;-69
2022/10/06 12:57:16;;;;;;;;;;;;;;;21.37;59.98;97970.75;4243331;27;5648;-69
2022/10/06 12:59:23;;;;;;;;;;;;;;;21.39;60.13;97969.44;4251217;27;5845;-69
2022/10/06 13:01:27;;;;;;;;;;;;;;;21.40;60.44;97963.00;4251506;27;5624;-68
2022/10/06 13:03:30;;;;;;;;;;;;;;;21.42;60.29;97957.44;4251164;27;5759;-69
2022/10/06 13:05:34;;;;;;;;;;;;;;;21.41;60.25;97956.59;4251293;27;5743;-69
2022/10/06 13:07:56;;;;;;;;;;;;;;;21.43;60.43;97954.50;4251111;27;5640;-69
2022/10/06 13:10:18;;;;;;;;;;;;;;;21.45;60.42;97962.31;4250889;27;5636;-69
2022/10/06 13:12:24;;;;;;;;;;;;;;;21.46;60.07;97956.72;4236905;27;5776;-69
2022/10/06 13:14:26;;;;;;;;;;;;;;;21.48;60.47;97957.28;4250891;27;5608;-69
2022/10/06 13:16:32;;;;;;;;;;;;;;;21.47;60.35;97944.91;4251188;27;5773;-68
2022/10/06 13:18:35;;;;;;;;;;;;;;;21.48;60.35;97949.22;4251326;27;5722;-69
2022/10/06 13:20:41;;;;;;;;;;;;;;;21.50;60.30;97943.59;4251165;27;5640;-68
2022/10/06 13:22:44;;;;;;;;;;;;;;;21.52;60.15;97941.50;4250997;27;5643;-69
2022/10/06 13:24:46;;;;;;;;;;;;;;;21.55;60.46;97948.28;4251143;27;5628;-69
2022/10/06 13:26:51;;;;;;;;;;;;;;;21.58;60.22;97950.50;4250925;27;5703;-69
2022/10/06 13:28:55;;;;;;;;;;;;;;;21.59;60.00;97936.00;4250968;27;5720;-68
2022/10/06 13:30:59;;;;;;;;;;;;;;;21.61;59.84;97952.72;4250630;27;5765;-69
2022/10/06 13:33:07;;;;;;;;;;;;;;;21.60;60.32;97934.94;4233854;28;5752;-69
2022/10/06 13:35:11;;;;;;;;;;;;;;;21.59;60.04;97933.31;4235247;27;5773;-68
2022/10/06 13:37:15;;;;;;;;;;;;;;;21.59;60.17;97936.81;4250696;27;5714;-69
2022/10/06 13:39:22;;;;;;;;;;;;;;;21.60;60.14;97941.13;4251215;27;5627;-69
2022/10/06 13:41:29;;;;;;;;;;;;;;;21.62;60.25;97940.91;4250461;27;5661;-69
2022/10/06 13:43:39;;;;;;;;;;;;;;;21.61;60.02;97945.47;4250734;27;5633;-69
2022/10/06 13:45:43;;;;;;;;;;;;;;;21.62;59.93;97940.91;4250657;27;5738;-69
2022/10/06 13:47:46;;;;;;;;;;;;;;;21.63;60.12;97939.84;4249259;27;5755;-70
2022/10/06 13:50:01;;;;;;;;;;;;;;;21.64;60.19;97944.19;4243111;27;5787;-70
2022/10/06 13:52:15;;;;;;;;;;;;;;;21.64;59.71;97939.63;4204905;28;5715;-69
2022/10/06 13:54:24;;;;;;;;;;;;;;;21.65;59.91;97937.75;4199982;28;5857;-74
2022/10/06 13:56:33;;;;;;;;;;;;;;;21.65;60.15;97943.13;4203656;28;5767;-75
2022/10/06 13:58:37;;;;;;;;;;;;;;;21.67;60.04;97933.78;4217850;28;5674;-75
2022/10/06 14:00:49;;;;;;;;;;;;;;;21.70;59.91;97941.38;4216585;28;5818;-73
2022/10/06 14:02:55;;;;;;;;;;;;;;;21.71;60.08;97942.19;4218603;28;5670;-74
2022/10/06 14:05:35;;;;;;;;;;;;;;;21.70;59.87;97938.66;4220058;28;6436;-74
2022/10/06 14:07:43;;;;;;;;;;;;;;;21.69;60.23;97936.22;4216925;28;5809;-74
2022/10/06 14:09:50;;;;;;;;;;;;;;;21.70;60.11;97927.91;4219794;28;5781;-74
2022/10/06 14:12:01;;;;;;;;;;;;;;;21.71;59.93;97932.22;4219578;28;5651;-74
2022/10/06 14:14:12;;;;;;;;;;;;;;;21.71;59.78;97939.50;4205201;28;5680;-74
2022/10/06 14:16:21;;;;;;;;;;;;;;;21.71;60.21;97940.31;4219720;28;6474;-74
2022/10/06 14:18:27;;;;;;;;;;;;;;;21.72;60.01;97935.75;4211597;28;5697;-74
2022/10/06 14:20:37;;;;;;;;;;;;;;;21.74;60.04;97928.25;4210518;28;6940;-74
2022/10/06 14:22:40;;;;;;;;;;;;;;;21.74;59.90;97930.94;4213750;28;5667;-74
2022/10/06 14:24:54;;;;;;;;;;;;;;;21.75;60.14;97933.41;4219719;28;5864;-74
2022/10/06 14:27:01;;;;;;;;;;;;;;;21.76;60.13;97931.53;4221014;28;5835;-73
2022/10/06 14:29:06;;;;;;;;;;;;;;;21.77;60.17;97933.19;4211817;28;5675;-74
2022/10/06 14:31:10;;;;;;;;;;;;;;;21.75;60.00;97929.91;4217903;28;5674;-73
2022/10/06 14:33:16;;;;;;;;;;;;;;;21.73;59.98;97927.44;4218386;28;5691;-74
2022/10/06 14:35:21;;;;;;;;;;;;;;;21.75;60.16;97932.59;4213027;28;5777;-73
2022/10/06 14:37:24;;;;;;;;;;;;;;;21.74;60.13;97923.69;4221988;28;5655;-73
2022/10/06 14:39:27;;;;;;;;;;;;;;;21.73;59.81;97923.91;4219503;28;6341;-73
2022/10/06 14:41:30;;;;;;;;;;;;;;;21.74;59.87;97922.84;4219123;28;5232;-74
2022/10/06 14:43:34;;;;;;;;;;;;;;;21.74;60.25;97928.25;4203647;28;5917;-75
2022/10/06 14:45:42;;;;;;;;;;;;;;;21.74;59.91;97933.63;4211670;28;5622;-74
2022/10/06 14:47:45;;;;;;;;;;;;;;;21.72;59.90;97915.03;4214659;28;5781;-74
2022/10/06 14:49:48;;;;;;;;;;;;;;;21.74;59.96;97914.78;4210151;28;5704;-73
2022/10/06 14:51:58;;;;;;;;;;;;;;;21.74;59.94;97917.47;4248178;27;6476;-74
2022/10/06 14:54:02;;;;;;;;;;;;;;;21.74;59.81;97912.91;4251153;27;5739;-74
2022/10/06 14:56:07;;;;;;;;;;;;;;;21.78;59.64;97922.16;4243376;27;5715;-74
2022/10/06 14:58:11;;;;;;;;;;;;;;;21.78;60.04;97918.66;4246743;27;5767;-74
2022/10/06 15:00:15;;;;;;;;;;;;;;;21.77;59.84;97911.63;4250574;27;5742;-74
2022/10/06 15:02:20;;;;;;;;;;;;;;;21.80;59.84;97911.16;4249278;27;5808;-73
2022/10/06 15:04:25;;;;;;;;;;;;;;;21.80;59.98;97905.78;4248904;27;5090;-72
2022/10/06 15:08:51;;;;;;;;;;;;;;;21.81;59.82;97902.03;4250558;27;5751;-70
2022/10/06 15:10:53;;;;;;;;;;;;;;;21.80;60.17;97917.34;4249089;27;5651;-68
2022/10/06 15:12:56;;;;;;;;;;;;;;;21.80;60.04;97898.50;4245238;27;6271;-69
2022/10/06 15:14:59;;;;;;;;;;;;;;;21.81;59.84;97907.41;4245676;27;5807;-68
2022/10/06 15:17:03;;;;;;;;;;;;;;;21.81;59.91;97902.03;4245338;27;5717;-67
2022/10/06 15:19:10;;;;;;;;;;;;;;;21.78;60.15;97889.06;4247789;27;5652;-68
2022/10/06 15:21:13;;;;;;;;;;;;;;;21.78;60.07;97892.56;4246480;27;5683;-70
2022/10/06 15:23:16;;;;;;;;;;;;;;;21.80;59.68;97895.81;4243297;27;5871;-69
2022/10/06 15:29:56;;;;;;;;;;;;;;;21.82;59.36;97887.50;4250312;27;5696;-69
2022/10/06 15:31:59;;;;;;;;;;;;;;;21.81;59.82;97880.50;4248538;27;5314;-68
2022/10/06 15:34:04;;;;;;;;;;;;;;;21.80;59.40;97887.75;4250147;27;7767;-68
2022/10/06 15:36:17;;;;;;;;;;;;;;;21.82;59.88;97887.50;4250217;27;5620;-69
2022/10/06 15:38:20;;;;;;;;;;;;;;;21.88;59.43;97891.94;4239197;27;5739;-69
2022/10/06 15:40:23;;;;;;;;;;;;;;;21.93;58.66;97878.56;4244922;27;5673;-69
2022/10/06 15:42:26;;;;;;;;;;;;;;;22.00;58.54;97884.66;4247414;27;5703;-71
2022/10/06 15:44:33;;;;;;;;;;;;;;;22.06;58.15;97882.88;4245875;27;5742;-69
2022/10/06 15:46:38;;;;;;;;;;;;;;;22.11;58.04;97882.19;4247261;27;5636;-70
2022/10/06 15:48:43;;;;;;;;;;;;;;;22.14;58.18;97887.09;4244140;27;5621;-68
2022/10/06 15:50:46;;;;;;;;;;;;;;;22.16;57.53;97883.09;4245113;27;5865;-69
2022/10/06 15:52:50;;;;;;;;;;;;;;;22.16;57.71;97877.69;4247134;27;5719;-69
2022/10/06 15:54:53;;;;;;;;;;;;;;;22.16;57.36;97884.97;4245046;27;5727;-69
2022/10/06 15:56:57;;;;;;;;;;;;;;;22.17;57.32;97878.53;4246613;27;6519;-68
2022/10/06 15:59:01;;;;;;;;;;;;;;;22.18;57.14;97883.66;4249258;27;5718;-68
2022/10/06 16:01:04;;;;;;;;;;;;;;;22.17;57.05;97884.72;4242693;27;5721;-69
2022/10/06 16:03:22;;;;;;;;;;;;;;;22.18;56.83;97885.53;4250346;27;5770;-69
2022/10/06 16:05:48;;;;;;;;;;;;;;;22.20;56.96;97878.03;4246859;27;5824;-69
2022/10/06 16:07:52;;;;;;;;;;;;;;;22.21;57.02;97879.69;4249413;27;5703;-69
2022/10/06 16:09:55;;;;;;;;;;;;;;;22.19;56.73;97884.47;4244835;27;5726;-69
2022/10/06 16:12:01;;;;;;;;;;;;;;;22.19;56.44;97890.69;4240840;27;5793;-69
2022/10/06 16:14:04;;;;;;;;;;;;;;;22.20;56.68;97888.81;4242780;27;5699;-69
2022/10/06 16:16:07;;;;;;;;;;;;;;;22.20;56.27;97888.81;4247085;27;5714;-69
2022/10/06 16:18:10;;;;;;;;;;;;;;;22.18;56.60;97890.91;4249549;27;5790;-69
2022/10/06 16:20:15;;;;;;;;;;;;;;;22.17;56.46;97889.28;4249563;27;6440;-70
2022/10/06 16:22:20;;;;;;;;;;;;;;;22.16;56.12;97882.28;4249999;27;5710;-69
2022/10/06 16:24:24;;;;;;;;;;;;;;;22.15;56.23;97888.72;4248934;27;5869;-69
2022/10/06 16:26:28;;;;;;;;;;;;;;;22.13;56.39;97885.47;4249025;27;5719;-69
2022/10/06 16:28:31;;;;;;;;;;;;;;;22.11;56.46;97879.50;4249236;27;5723;-70
2022/10/06 16:30:33;;;;;;;;;;;;;;;22.08;56.57;97881.63;4247026;27;5730;-69
2022/10/06 16:32:36;;;;;;;;;;;;;;;22.08;56.44;97891.53;4249991;27;5695;-69
2022/10/06 16:34:39;;;;;;;;;;;;;;;22.05;56.02;97886.63;4251596;27;5709;-69
2022/10/06 16:36:42;;;;;;;;;;;;;;;22.03;55.93;97889.56;4251116;27;5865;-69
2022/10/06 16:38:48;;;;;;;;;;;;;;;22.04;55.99;97888.50;4247656;27;5695;-69
2022/10/06 16:40:57;;;;;;;;;;;;;;;22.01;56.33;97885.47;4247554;27;6353;-69
2022/10/06 16:43:00;;;;;;;;;;;;;;;22.00;56.21;97884.66;4246115;27;6785;-70
2022/10/06 16:45:02;;;;;;;;;;;;;;;21.98;56.29;97883.25;4243983;27;5643;-70
2022/10/06 16:47:05;;;;;;;;;;;;;;;21.97;56.09;97884.28;4247981;27;5640;-70
2022/10/06 16:49:09;;;;;;;;;;;;;;;21.96;56.34;97882.66;4245608;27;5827;-69
2022/10/06 16:51:13;;;;;;;;;;;;;;;21.94;56.32;97885.59;4245071;27;5701;-69
2022/10/06 16:53:17;;;;;;;;;;;;;;;21.94;56.42;97885.59;4240885;27;5648;-69
2022/10/06 16:55:20;;;;;;;;;;;;;;;21.93;56.44;97889.34;4245906;27;5715;-69
2022/10/06 16:57:24;;;;;;;;;;;;;;;21.92;55.88;97889.59;4245064;27;5727;-69
2022/10/06 16:59:27;;;;;;;;;;;;;;;21.90;56.27;97892.53;4250465;27;5632;-69
2022/10/06 17:01:33;;;;;;;;;;;;;;;21.87;56.03;97889.50;4240737;27;5797;-70
2022/10/06 17:03:36;;;;;;;;;;;;;;;21.85;56.07;97892.41;4242298;27;5635;-70
2022/10/06 17:05:40;;;;;;;;;;;;;;;21.84;56.12;97895.34;4244067;27;5773;-69
2022/10/06 17:07:43;;;;;;;;;;;;;;;21.80;55.97;97889.63;4246016;27;5714;-69
2022/10/06 17:09:46;;;;;;;;;;;;;;;21.78;55.84;97892.56;4249851;27;5616;-69
2022/10/06 17:12:09;;;;;;;;;;;;;;;21.76;56.39;97883.91;4246893;27;5148;-69
2022/10/06 17:14:14;;;;;;;;;;;;;;;21.74;55.81;97891.38;4248511;27;5636;-69
2022/10/06 17:16:18;;;;;;;;;;;;;;;21.72;56.22;97896.19;4242646;27;6360;-71
2022/10/06 17:18:21;;;;;;;;;;;;;;;21.72;56.06;97898.88;4247755;27;5103;-70
2022/10/06 17:20:24;;;;;;;;;;;;;;;21.69;56.31;97898.53;4242550;27;5620;-69
2022/10/06 17:22:27;;;;;;;;;;;;;;;21.66;55.90;97896.34;4239039;27;6723;-69
2022/10/06 17:24:30;;;;;;;;;;;;;;;21.63;56.10;97900.31;4241168;27;5668;-72
2022/10/06 17:26:35;;;;;;;;;;;;;;;21.62;56.00;97897.84;4251621;27;5785;-71